Time;durP1;ratioP1;P1;durP2;ratioP2;P2;SDS_P1;SDS_P2;PMS_P1;PMS_P2;Temp;Humidity;BMP_temperature;BMP_pressure;BME280_temperature;BME280_humidity;BME280_pressure;Samples;Min_cycle;Max_cycle;Signal;HPM_P1;HPM_P2
2023/03/25 00:01:31;;;;;;;7.40;4.80;;;;;;;10.63;83.42;99261.70;104088;279;96707;-54
2023/03/25 00:04:06;;;;;;;8.00;5.10;;;;;;;10.57;83.57;99254.39;104110;279;97576;-58
2023/03/25 00:06:39;;;;;;;9.20;5.80;;;;;;;10.53;83.66;99256.08;104484;279;119930;-58
2023/03/25 00:09:13;;;;;;;7.80;5.20;;;;;;;10.50;83.55;99252.19;104075;279;105347;-54
2023/03/25 00:11:49;;;;;;;7.10;5.60;;;;;;;10.48;83.57;99248.71;104055;279;114607;-54
2023/03/25 00:14:24;;;;;;;9.10;5.50;;;;;;;10.45;83.66;99251.27;104077;278;95234;-55
2023/03/25 00:16:56;;;;;;;;;;;;;;;10.40;83.52;99255.02;103953;279;99308;-54
2023/03/25 00:19:30;;;;;;;8.30;5.00;;;;;;;10.34;83.71;99248.59;104069;278;121314;-54
2023/03/25 00:22:04;;;;;;;7.60;5.00;;;;;;;10.28;83.62;99246.49;104506;279;105457;-54
2023/03/25 00:24:38;;;;;;;7.00;5.50;;;;;;;10.29;83.73;99258.91;104490;279;113567;-58
2023/03/25 00:27:16;;;;;;;8.10;5.80;;;;;;;10.31;83.89;99261.22;104106;279;93769;-58
2023/03/25 00:29:50;;;;;;;8.60;6.10;;;;;;;10.30;84.02;99249.98;104536;279;97715;-54
2023/03/25 00:32:28;;;;;;;9.90;5.90;;;;;;;10.32;83.97;99251.55;104087;279;119972;-54
2023/03/25 00:35:02;;;;;;;8.70;5.50;;;;;;;10.28;83.92;99265.39;104109;278;104810;-58
2023/03/25 00:37:37;;;;;;;7.10;5.40;;;;;;;10.26;84.10;99266.27;104114;279;113987;-54
2023/03/25 00:40:13;;;;;;;10.20;5.90;;;;;;;10.20;84.15;99252.06;104093;279;97299;-55
2023/03/25 00:42:49;;;;;;;6.80;5.60;;;;;;;10.18;84.15;99256.38;104074;279;97861;-58
2023/03/25 00:45:23;;;;;;;7.50;5.50;;;;;;;10.13;84.13;99251.34;104077;279;119735;-58
2023/03/25 00:47:58;;;;;;;7.60;5.50;;;;;;;10.11;83.98;99252.91;104093;278;104625;-60
2023/03/25 00:50:33;;;;;;;7.70;5.70;;;;;;;10.05;84.20;99254.74;104055;279;114673;-60
2023/03/25 00:53:07;;;;;;;8.90;6.30;;;;;;;10.03;84.09;99256.80;104494;278;95459;-54
2023/03/25 00:55:40;;;;;;;;;;;;;;;10.03;84.12;99253.23;104154;279;96424;-54
2023/03/25 00:58:14;;;;;;;8.80;6.10;;;;;;;9.96;84.15;99254.37;104045;279;120461;-54
2023/03/25 01:00:48;;;;;;;10.60;6.50;;;;;;;9.92;84.20;99259.33;104092;278;104556;-54
2023/03/25 01:03:22;;;;;;;9.20;6.30;;;;;;;9.86;84.14;99259.26;104086;278;112209;-54
2023/03/25 01:05:57;;;;;;;10.50;5.80;;;;;;;9.82;84.29;99255.86;104501;279;96126;-54
2023/03/25 01:08:31;;;;;;;11.00;6.60;;;;;;;9.74;84.22;99252.79;104101;279;96055;-54
2023/03/25 01:11:05;;;;;;;9.30;6.10;;;;;;;9.68;84.41;99250.80;104051;278;120559;-54
2023/03/25 01:13:37;;;;;;;;;;;;;;;9.67;84.30;99255.13;104542;279;105006;-58
2023/03/25 01:16:12;;;;;;;8.90;6.50;;;;;;;9.60;84.31;99249.58;104069;278;114574;-58
2023/03/25 01:18:47;;;;;;;7.60;5.80;;;;;;;9.51;84.22;99255.98;104077;278;95931;-54
2023/03/25 01:21:21;;;;;;;9.80;6.70;;;;;;;9.45;84.32;99257.61;104090;279;97204;-54
2023/03/25 01:23:53;;;;;;;;;;;;;;;9.40;84.38;99255.84;104516;279;119677;-54
2023/03/25 01:26:27;;;;;;;9.50;5.80;;;;;;;9.34;84.43;99249.84;104065;279;105726;-53
2023/03/25 01:29:02;;;;;;;7.90;6.10;;;;;;;9.27;84.40;99255.23;104091;279;113347;-57
2023/03/25 01:31:36;;;;;;;7.50;5.60;;;;;;;9.22;84.38;99253.80;104088;278;96482;-58
2023/03/25 01:34:10;;;;;;;9.90;6.40;;;;;;;9.19;84.52;99255.11;104115;279;97107;-54
2023/03/25 01:36:45;;;;;;;9.20;6.30;;;;;;;9.20;84.68;99248.11;104075;279;120046;-54
2023/03/25 01:39:22;;;;;;;9.40;6.00;;;;;;;9.14;84.57;99244.84;104062;279;105579;-54
2023/03/25 01:41:56;;;;;;;9.30;7.00;;;;;;;9.07;84.53;99245.76;104032;282;114362;-54
2023/03/25 01:45:09;;;;;;;8.80;6.40;;;;;;;8.99;84.48;99247.12;104064;279;93461;-59
2023/03/25 01:47:46;;;;;;;9.90;6.50;;;;;;;8.78;84.75;99247.23;104125;279;97723;-59
2023/03/25 01:50:21;;;;;;;10.20;6.20;;;;;;;8.72;84.64;99248.42;104516;278;120850;-59
2023/03/25 01:53:00;;;;;;;9.10;6.50;;;;;;;8.64;84.84;99257.20;104134;278;105912;-54
2023/03/25 01:55:36;;;;;;;9.50;6.40;;;;;;;8.65;85.11;99251.80;104074;279;113268;-54
2023/03/25 01:58:17;;;;;;;10.40;6.60;;;;;;;8.62;85.00;99251.73;104504;279;94334;-59
2023/03/25 02:00:53;;;;;;;9.10;7.10;;;;;;;8.54;85.07;99249.55;104496;279;98537;-59
2023/03/25 02:03:28;;;;;;;9.70;7.20;;;;;;;8.52;85.32;99243.71;104095;266;119554;-58
2023/03/25 02:06:06;;;;;;;9.70;7.10;;;;;;;8.50;85.18;99253.20;104050;279;105617;-58
2023/03/25 02:08:41;;;;;;;9.30;6.90;;;;;;;8.45;85.43;99262.96;104083;279;114055;-54
2023/03/25 02:11:15;;;;;;;11.10;7.30;;;;;;;8.43;85.30;99263.13;104054;279;95150;-53
2023/03/25 02:13:49;;;;;;;11.90;7.40;;;;;;;8.36;85.22;99259.17;104090;279;97178;-60
2023/03/25 02:16:39;;;;;;;10.50;7.20;;;;;;;8.25;85.31;99261.52;104052;279;119814;-60
2023/03/25 02:19:44;;;;;;;10.00;7.20;;;;;;;8.18;85.36;99262.80;104007;279;105434;-55
2023/03/25 02:23:01;;;;;;;11.20;6.70;;;;;;;8.16;85.32;99260.18;104466;279;113461;-55
2023/03/25 02:26:10;;;;;;;11.80;7.00;;;;;;;8.11;85.54;99250.66;104100;278;97395;-55
2023/03/25 02:28:55;;;;;;;11.70;7.30;;;;;;;8.03;85.58;99251.37;103666;282;96947;-59
2023/03/25 02:31:55;;;;;;;10.50;7.10;;;;;;;8.01;85.58;99249.42;103989;279;121401;-59
2023/03/25 02:34:59;;;;;;;8.50;6.50;;;;;;;7.97;85.51;99248.98;104023;278;105550;-54
2023/03/25 02:38:05;;;;;;;11.90;7.30;;;;;;;7.89;85.46;99251.46;104005;279;114997;-57
2023/03/25 02:40:45;;;;;;;9.90;7.20;;;;;;;7.85;85.60;99247.83;104080;279;97188;-59
2023/03/25 02:43:24;;;;;;;11.50;7.80;;;;;;;7.84;85.44;99251.91;104065;279;96681;-60
2023/03/25 02:46:03;;;;;;;9.30;7.50;;;;;;;7.78;85.49;99249.69;104100;279;120649;-60
2023/03/25 02:48:42;;;;;;;11.30;7.90;;;;;;;7.70;85.52;99249.52;104548;279;106347;-53
2023/03/25 02:51:22;;;;;;;10.40;8.40;;;;;;;7.65;85.73;99248.23;104087;279;114851;-54
2023/03/25 02:54:00;;;;;;;11.70;7.60;;;;;;;7.64;85.80;99248.92;104074;279;96069;-59
2023/03/25 02:56:35;;;;;;;10.70;7.50;;;;;;;7.62;85.66;99251.13;104495;279;98885;-59
2023/03/25 02:59:13;;;;;;;10.40;8.20;;;;;;;7.58;85.87;99249.50;104478;279;121235;-54
2023/03/25 03:01:49;;;;;;;11.10;7.20;;;;;;;7.57;85.98;99252.77;104492;279;105283;-54
2023/03/25 03:04:23;;;;;;;10.20;7.30;;;;;;;7.56;86.10;99254.95;104509;279;114784;-58
2023/03/25 03:06:58;;;;;;;10.40;7.00;;;;;;;7.56;86.08;99253.04;104062;279;95758;-58
2023/03/25 03:09:44;;;;;;;11.20;7.80;;;;;;;7.57;86.23;99251.27;104087;279;96997;-54
2023/03/25 03:12:41;;;;;;;10.90;7.20;;;;;;;7.65;86.52;99258.75;104486;278;118954;-54
2023/03/25 03:15:33;;;;;;;10.30;7.40;;;;;;;7.64;86.38;99259.88;104083;279;105873;-54
2023/03/25 03:18:19;;;;;;;12.80;7.30;;;;;;;7.59;86.44;99258.93;104484;279;113871;-54
2023/03/25 03:21:06;;;;;;;9.30;7.70;;;;;;;7.56;86.48;99257.75;104104;279;97050;-54
2023/03/25 03:23:51;;;;;;;10.20;7.10;;;;;;;7.49;86.48;99261.43;104112;278;97669;-59
2023/03/25 03:26:38;;;;;;;9.50;7.40;;;;;;;7.49;86.47;99268.91;104070;279;119859;-59
2023/03/25 03:29:17;;;;;;;9.90;7.20;;;;;;;7.48;86.56;99273.05;104091;278;104728;-59
2023/03/25 03:31:58;;;;;;;9.50;7.20;;;;;;;7.48;86.65;99270.20;104046;278;114396;-59
2023/03/25 03:34:42;;;;;;;13.20;8.60;;;;;;;7.45;86.47;99270.79;104089;279;96829;-58
2023/03/25 03:37:19;;;;;;;10.20;6.90;;;;;;;7.39;86.48;99271.42;104446;279;97909;-58
2023/03/25 03:39:57;;;;;;;11.00;7.40;;;;;;;7.37;86.68;99265.23;104039;278;118672;-54
2023/03/25 03:42:38;;;;;;;10.00;7.30;;;;;;;7.31;86.52;99258.80;104129;267;104557;-59
2023/03/25 03:45:17;;;;;;;10.80;7.20;;;;;;;7.23;86.49;99256.55;104492;279;112667;-59
2023/03/25 03:47:57;;;;;;;10.30;7.20;;;;;;;7.13;86.51;99257.92;104082;279;95560;-58
2023/03/25 03:50:36;;;;;;;9.80;6.90;;;;;;;7.06;86.45;99258.56;104080;278;96641;-58
2023/03/25 03:53:16;;;;;;;9.50;7.30;;;;;;;6.97;86.27;99261.48;104084;279;119748;-54
2023/03/25 03:55:55;;;;;;;14.40;7.30;;;;;;;6.90;86.25;99268.10;104085;279;104938;-54
2023/03/25 03:58:33;;;;;;;9.40;6.80;;;;;;;6.79;86.21;99264.41;104070;279;114263;-54
2023/03/25 04:01:13;;;;;;;8.60;6.80;;;;;;;6.71;86.32;99274.98;104118;279;94283;-54
2023/03/25 04:03:54;;;;;;;9.20;6.50;;;;;;;6.68;86.44;99281.41;104080;278;97826;-54
2023/03/25 04:06:34;;;;;;;8.90;7.20;;;;;;;6.64;86.59;99277.60;104083;279;120723;-54
2023/03/25 04:09:17;;;;;;;10.40;7.60;;;;;;;6.60;86.69;99281.16;104065;275;104860;-59
2023/03/25 04:11:59;;;;;;;8.90;7.30;;;;;;;6.57;86.77;99285.33;104075;279;115306;-59
2023/03/25 04:14:33;;;;;;;11.70;7.40;;;;;;;6.57;87.00;99290.11;104484;279;96511;-59
2023/03/25 04:17:08;;;;;;;10.20;7.30;;;;;;;6.57;87.14;99286.52;104087;279;96439;-59
2023/03/25 04:19:47;;;;;;;10.60;7.30;;;;;;;6.60;86.95;99288.91;104076;279;120955;-54
2023/03/25 04:22:23;;;;;;;9.90;7.50;;;;;;;6.61;87.26;99287.15;104492;278;105203;-54
2023/03/25 04:24:59;;;;;;;9.90;7.20;;;;;;;6.65;87.39;99290.08;104501;279;114396;-59
2023/03/25 04:27:36;;;;;;;9.80;7.10;;;;;;;6.68;87.48;99287.14;104089;279;97721;-60
2023/03/25 04:30:13;;;;;;;10.40;7.80;;;;;;;6.74;87.61;99283.23;104487;279;97628;-60
2023/03/25 04:32:47;;;;;;;10.00;7.80;;;;;;;6.80;87.59;99286.22;104075;278;119455;-55
2023/03/25 04:35:24;;;;;;;10.80;7.50;;;;;;;6.86;87.55;99288.42;104090;278;103634;-55
2023/03/25 04:37:58;;;;;;;11.80;8.20;;;;;;;6.92;87.63;99292.98;104069;279;113752;-55
2023/03/25 04:40:32;;;;;;;10.20;8.40;;;;;;;6.99;87.68;99300.17;104088;279;96265;-55
2023/03/25 04:43:06;;;;;;;11.30;8.00;;;;;;;7.03;87.79;99302.00;103940;279;97307;-59
2023/03/25 04:45:47;;;;;;;11.50;8.40;;;;;;;7.10;87.73;99298.71;104125;279;121186;-59
2023/03/25 04:48:28;;;;;;;11.70;9.10;;;;;;;7.18;87.89;99299.94;104506;278;105922;-60
2023/03/25 04:51:03;;;;;;;11.10;8.40;;;;;;;7.35;88.20;99292.71;104071;278;114837;-60
2023/03/25 04:53:37;;;;;;;12.70;8.70;;;;;;;7.44;88.23;99284.52;104066;279;95074;-55
2023/03/25 04:56:14;;;;;;;;;;;;;;;7.50;88.11;99282.16;104093;279;97483;-55
2023/03/25 04:58:48;;;;;;;13.30;8.70;;;;;;;7.53;88.14;99281.63;104095;278;119833;-59
2023/03/25 05:01:30;;;;;;;10.60;7.90;;;;;;;7.59;88.02;99277.58;104097;279;105340;-59
2023/03/25 05:04:06;;;;;;;11.80;9.40;;;;;;;7.65;88.12;99276.41;104069;278;114558;-59
2023/03/25 05:06:42;;;;;;;11.50;8.30;;;;;;;7.76;88.18;99283.83;104047;279;95346;-59
2023/03/25 05:09:19;;;;;;;11.40;8.10;;;;;;;7.80;88.23;99289.15;104066;278;97827;-59
2023/03/25 05:11:54;;;;;;;11.00;8.20;;;;;;;7.85;88.10;99291.58;104482;274;119634;-59
2023/03/25 05:14:29;;;;;;;9.90;7.70;;;;;;;7.86;88.29;99299.73;104494;279;105107;-55
2023/03/25 05:17:02;;;;;;;11.30;9.00;;;;;;;7.95;88.06;99297.46;104518;279;113510;-55
2023/03/25 05:19:36;;;;;;;13.80;9.00;;;;;;;8.03;88.01;99294.11;104511;278;95864;-59
2023/03/25 05:22:11;;;;;;;12.10;9.00;;;;;;;8.17;88.27;99290.65;104094;274;97423;-58
2023/03/25 05:24:46;;;;;;;10.90;8.60;;;;;;;8.25;88.11;99296.12;104059;278;120985;-54
2023/03/25 05:27:20;;;;;;;11.90;8.90;;;;;;;8.35;88.08;99295.27;104123;278;104146;-54
2023/03/25 05:29:57;;;;;;;11.20;8.40;;;;;;;8.42;88.01;99297.56;104079;278;111984;-54
2023/03/25 05:32:32;;;;;;;11.90;8.80;;;;;;;8.50;88.08;99303.10;104072;279;96783;-57
2023/03/25 05:35:07;;;;;;;12.10;9.50;;;;;;;8.54;87.98;99308.23;104072;279;96746;-54
2023/03/25 05:37:41;;;;;;;11.10;8.70;;;;;;;8.59;88.04;99304.16;104067;278;119596;-54
2023/03/25 05:40:15;;;;;;;13.00;9.60;;;;;;;8.67;87.85;99303.80;104063;279;106484;-54
2023/03/25 05:42:49;;;;;;;13.90;9.20;;;;;;;8.70;87.74;99307.29;104103;278;114939;-54
2023/03/25 05:45:24;;;;;;;14.40;9.80;;;;;;;8.70;87.77;99308.38;104097;279;97201;-54
2023/03/25 05:47:59;;;;;;;11.60;9.40;;;;;;;8.71;87.77;99308.30;104095;278;97456;-54
2023/03/25 05:50:31;;;;;;;;;;;;;;;8.83;87.77;99301.44;104066;279;120589;-54
2023/03/25 05:53:05;;;;;;;16.50;9.10;;;;;;;8.86;87.78;99302.42;104407;279;106074;-54
2023/03/25 05:55:40;;;;;;;12.70;8.90;;;;;;;8.90;87.84;99302.64;104097;278;114861;-54
2023/03/25 05:58:16;;;;;;;14.10;9.40;;;;;;;9.02;87.72;99305.98;104084;279;97152;-54
2023/03/25 06:00:50;;;;;;;11.40;9.80;;;;;;;9.13;87.71;99310.03;104120;278;96765;-54
2023/03/25 06:03:26;;;;;;;14.20;9.90;;;;;;;9.17;87.66;99307.21;104114;279;120048;-54
2023/03/25 06:06:00;;;;;;;12.10;9.40;;;;;;;9.27;87.72;99313.31;104082;279;105026;-53
2023/03/25 06:08:38;;;;;;;12.50;10.10;;;;;;;9.41;87.58;99314.23;104127;279;114043;-54
2023/03/25 06:11:13;;;;;;;12.00;9.90;;;;;;;9.53;87.52;99318.90;104075;279;93862;-54
2023/03/25 06:13:49;;;;;;;14.80;10.30;;;;;;;9.54;87.27;99316.34;104114;278;95525;-58
2023/03/25 06:16:28;;;;;;;12.50;9.70;;;;;;;9.61;87.17;99320.77;103937;279;119032;-58
2023/03/25 06:19:03;;;;;;;14.00;10.10;;;;;;;9.71;87.11;99321.25;104094;279;104407;-58
2023/03/25 06:21:37;;;;;;;15.20;10.40;;;;;;;9.80;86.97;99320.33;104103;279;114336;-58
2023/03/25 06:24:12;;;;;;;11.80;9.60;;;;;;;9.88;87.03;99323.86;104100;279;97119;-58
2023/03/25 06:26:46;;;;;;;12.20;9.70;;;;;;;9.99;86.65;99314.88;104554;279;96502;-59
2023/03/25 06:29:20;;;;;;;11.20;9.40;;;;;;;10.13;86.64;99319.29;104105;279;119768;-58
2023/03/25 06:31:53;;;;;;;;;;;;;;;10.28;86.62;99318.42;104557;279;105632;-58
2023/03/25 06:34:26;;;;;;;12.60;9.50;;;;;;;10.44;86.58;99314.41;104061;279;113005;-59
2023/03/25 06:37:01;;;;;;;14.30;10.10;;;;;;;10.63;86.30;99308.56;104077;278;96892;-59
2023/03/25 06:39:37;;;;;;;13.60;10.30;;;;;;;10.80;86.00;99312.14;104120;279;97787;-58
2023/03/25 06:42:12;;;;;;;13.80;10.20;;;;;;;10.99;86.37;99310.13;104092;279;119426;-58
2023/03/25 06:44:49;;;;;;;13.90;10.00;;;;;;;11.14;86.02;99308.83;104094;279;104493;-58
2023/03/25 06:47:25;;;;;;;13.00;9.60;;;;;;;11.34;85.28;99313.16;104124;279;114381;-58
2023/03/25 06:50:00;;;;;;;10.60;9.50;;;;;;;11.48;85.33;99311.13;104525;279;93410;-54
2023/03/25 06:52:34;;;;;;;13.50;10.20;;;;;;;11.59;84.89;99303.54;104111;278;96375;-55
2023/03/25 06:55:10;;;;;;;14.80;11.00;;;;;;;11.64;84.62;99299.15;104547;279;119516;-54
2023/03/25 06:57:45;;;;;;;13.00;10.00;;;;;;;11.72;84.38;99296.48;104550;279;104482;-59
2023/03/25 07:00:22;;;;;;;13.50;10.20;;;;;;;11.75;84.14;99296.86;104050;279;115515;-58
2023/03/25 07:02:57;;;;;;;13.10;9.80;;;;;;;11.72;83.93;99288.77;104075;279;97026;-55
2023/03/25 07:05:31;;;;;;;12.50;10.20;;;;;;;11.65;83.75;99288.02;104087;279;97651;-55
2023/03/25 07:08:07;;;;;;;11.90;9.40;;;;;;;11.70;83.34;99288.46;104086;279;120904;-60
2023/03/25 07:10:41;;;;;;;13.40;10.30;;;;;;;11.78;83.45;99291.22;104512;279;104913;-60
2023/03/25 07:13:16;;;;;;;12.40;9.60;;;;;;;11.89;83.71;99293.49;104500;279;114571;-54
2023/03/25 07:15:50;;;;;;;13.70;9.20;;;;;;;12.25;83.66;99288.94;104061;279;96970;-54
2023/03/25 07:18:24;;;;;;;13.00;10.00;;;;;;;12.56;83.61;99294.59;104113;279;95532;-54
2023/03/25 07:20:59;;;;;;;10.60;8.30;;;;;;;13.03;83.01;99299.20;104048;278;118746;-55
2023/03/25 07:23:33;;;;;;;11.40;8.70;;;;;;;13.67;82.71;99301.04;104089;279;105948;-58
2023/03/25 07:26:08;;;;;;;12.70;9.10;;;;;;;14.22;81.52;99298.11;104060;279;114588;-59
2023/03/25 07:28:43;;;;;;;11.20;8.80;;;;;;;15.56;81.18;99295.59;104059;279;94520;-55
2023/03/25 07:31:18;;;;;;;9.90;8.60;;;;;;;17.02;80.51;99287.45;104122;279;96678;-55
2023/03/25 07:33:52;;;;;;;11.50;8.50;;;;;;;18.29;79.28;99279.00;104069;279;121418;-55
2023/03/25 07:36:28;;;;;;;10.10;7.80;;;;;;;18.69;76.41;99284.33;103792;278;607824;-55
2023/03/25 07:39:03;;;;;;;10.20;8.00;;;;;;;19.18;74.66;99292.09;104050;278;114871;-55
2023/03/25 07:41:38;;;;;;;8.80;7.60;;;;;;;19.64;73.73;99284.08;104110;279;94982;-55
2023/03/25 07:44:13;;;;;;;8.80;7.20;;;;;;;19.91;72.63;99288.04;104114;279;97047;-59
2023/03/25 07:46:48;;;;;;;9.00;7.80;;;;;;;20.09;71.34;99292.99;104093;279;120097;-61
2023/03/25 07:49:22;;;;;;;8.40;6.80;;;;;;;20.08;70.48;99287.13;104164;278;103320;-55
2023/03/25 07:51:57;;;;;;;9.70;7.50;;;;;;;20.59;69.64;99289.29;104089;278;114930;-55
2023/03/25 07:54:32;;;;;;;9.30;7.70;;;;;;;21.39;68.26;99287.36;104081;278;94714;-55
2023/03/25 07:57:10;;;;;;;8.40;7.10;;;;;;;22.37;65.87;99279.44;104136;279;96957;-55
2023/03/25 07:59:45;;;;;;;9.10;7.20;;;;;;;23.12;65.55;99282.70;104505;279;119308;-55
2023/03/25 08:02:17;;;;;;;;;;;;;;;23.22;63.41;99291.30;104537;279;106308;-55
2023/03/25 08:04:53;;;;;;;9.30;6.80;;;;;;;22.73;63.59;99285.89;104072;279;114016;-55
2023/03/25 08:07:28;;;;;;;9.00;7.10;;;;;;;22.74;62.79;99284.13;104070;279;95256;-58
2023/03/25 08:10:03;;;;;;;8.50;7.60;;;;;;;22.69;61.73;99286.21;104096;279;97668;-55
2023/03/25 08:12:37;;;;;;;8.00;6.90;;;;;;;23.58;60.84;99289.04;104095;279;119794;-56
2023/03/25 08:15:15;;;;;;;10.10;6.90;;;;;;;24.51;57.78;99280.66;104484;279;104534;-55
2023/03/25 08:17:50;;;;;;;7.70;6.90;;;;;;;24.70;57.83;99279.48;104094;278;113211;-61
2023/03/25 08:20:24;;;;;;;7.60;6.10;;;;;;;25.27;56.79;99277.33;104496;279;92707;-61
2023/03/25 08:22:59;;;;;;;7.00;5.70;;;;;;;25.49;56.65;99277.75;104522;279;97582;-56
2023/03/25 08:25:33;;;;;;;7.50;6.70;;;;;;;25.87;54.13;99279.61;104072;278;120803;-55
2023/03/25 08:28:08;;;;;;;7.80;6.10;;;;;;;25.88;52.00;99276.80;104132;278;104846;-60
2023/03/25 08:30:42;;;;;;;6.10;5.40;;;;;;;26.61;52.05;99274.60;104107;278;113853;-54
2023/03/25 08:33:18;;;;;;;5.80;5.10;;;;;;;27.28;51.74;99267.96;104094;278;94233;-54
2023/03/25 08:35:53;;;;;;;6.40;5.60;;;;;;;27.89;52.22;99266.06;104110;279;97752;-54
2023/03/25 08:38:30;;;;;;;6.30;5.40;;;;;;;28.25;52.01;99262.66;104103;279;121154;-55
2023/03/25 08:41:05;;;;;;;6.60;5.80;;;;;;;28.69;49.47;99264.88;104489;279;105273;-55
2023/03/25 08:43:39;;;;;;;7.90;5.90;;;;;;;29.01;48.98;99265.43;104112;279;113941;-55
2023/03/25 08:46:14;;;;;;;7.50;6.20;;;;;;;29.06;45.90;99262.86;104105;279;94307;-55
2023/03/25 08:48:48;;;;;;;6.00;5.40;;;;;;;29.02;45.09;99260.08;104522;279;97231;-55
2023/03/25 08:51:22;;;;;;;6.50;5.80;;;;;;;28.90;43.34;99258.80;104112;279;120019;-55
2023/03/25 08:53:56;;;;;;;6.90;6.20;;;;;;;28.76;42.26;99257.61;104080;278;105241;-59
2023/03/25 08:56:31;;;;;;;6.40;5.40;;;;;;;28.61;43.26;99256.22;104047;279;115303;-60
2023/03/25 08:59:06;;;;;;;6.30;5.50;;;;;;;28.71;43.95;99254.80;104100;279;94133;-61
2023/03/25 09:01:42;;;;;;;7.80;5.70;;;;;;;28.93;42.83;99249.61;104091;279;97191;-61
2023/03/25 09:04:16;;;;;;;7.10;5.90;;;;;;;28.93;42.63;99250.75;104110;279;119052;-60
2023/03/25 09:06:52;;;;;;;7.90;5.50;;;;;;;29.06;42.57;99257.36;104512;279;105478;-60
2023/03/25 09:09:28;;;;;;;6.20;5.00;;;;;;;28.60;42.15;99252.18;104100;278;113956;-61
2023/03/25 09:12:02;;;;;;;6.50;5.30;;;;;;;27.61;42.43;99252.39;104099;279;93474;-60
2023/03/25 09:14:37;;;;;;;6.50;5.50;;;;;;;26.82;42.04;99253.83;104122;278;97255;-61
2023/03/25 09:17:11;;;;;;;5.50;4.30;;;;;;;25.85;42.52;99253.19;104513;279;120631;-61
2023/03/25 09:19:45;;;;;;;7.40;5.00;;;;;;;24.89;42.58;99257.95;104084;279;106184;-55
2023/03/25 09:22:19;;;;;;;6.50;4.60;;;;;;;24.19;42.48;99260.70;104067;282;113486;-55
2023/03/25 09:24:53;;;;;;;6.00;4.90;;;;;;;23.32;43.17;99261.99;104086;279;92630;-59
2023/03/25 09:27:28;;;;;;;8.20;4.70;;;;;;;22.71;43.55;99262.52;104095;279;97043;-57
2023/03/25 09:30:02;;;;;;;9.00;5.40;;;;;;;22.16;44.84;99263.73;104096;279;120227;-54
2023/03/25 09:32:37;;;;;;;6.00;4.90;;;;;;;21.92;44.77;99264.05;104112;279;104659;-58
2023/03/25 09:35:12;;;;;;;7.20;4.70;;;;;;;21.46;45.75;99264.57;104065;279;112409;-59
2023/03/25 09:37:46;;;;;;;5.00;4.40;;;;;;;21.27;46.59;99261.48;104097;279;94636;-55
2023/03/25 09:40:22;;;;;;;6.30;4.60;;;;;;;21.19;46.55;99261.48;104084;278;97940;-54
2023/03/25 09:43:17;;;;;;;6.60;3.90;;;;;;;21.06;47.22;99258.76;104102;279;120471;-60
2023/03/25 09:45:53;;;;;;;9.70;5.90;;;;;;;20.86;47.81;99258.77;104502;279;103556;-58
2023/03/25 09:48:35;;;;;;;6.70;4.90;;;;;;;20.75;47.95;99253.19;104105;282;114310;-59
2023/03/25 09:51:19;;;;;;;8.40;4.60;;;;;;;20.70;48.55;99253.72;104483;315;95504;-59
2023/03/25 09:53:58;;;;;;;6.60;5.00;;;;;;;20.70;48.05;99250.97;104100;279;97927;-55
2023/03/25 09:56:37;;;;;;;6.80;5.00;;;;;;;20.43;47.70;99250.40;104099;279;119953;-55
2023/03/25 09:59:17;;;;;;;7.80;4.60;;;;;;;20.22;48.93;99251.71;104060;278;106525;-60
2023/03/25 10:02:02;;;;;;;5.80;4.80;;;;;;;20.11;48.82;99252.46;104080;279;114791;-60
2023/03/25 10:04:59;;;;;;;7.70;5.10;;;;;;;19.97;48.84;99256.95;104516;279;95055;-58
2023/03/25 10:07:50;;;;;;;7.50;4.90;;;;;;;19.81;49.52;99260.21;104101;279;95510;-55
2023/03/25 10:10:30;;;;;;;5.80;4.70;;;;;;;19.79;50.19;99258.63;104500;279;120419;-55
2023/03/25 10:13:15;;;;;;;5.60;4.10;;;;;;;19.97;50.48;99252.06;104111;278;104858;-60
2023/03/25 10:15:57;;;;;;;5.10;4.10;;;;;;;20.08;49.74;99245.66;104512;279;113861;-59
2023/03/25 10:18:52;;;;;;;5.50;4.40;;;;;;;20.00;49.64;99250.19;104056;279;94413;-54
2023/03/25 10:21:33;;;;;;;6.20;4.30;;;;;;;19.93;48.85;99250.48;104094;278;97495;-55
2023/03/25 10:24:17;;;;;;;7.00;4.50;;;;;;;19.87;50.02;99253.08;104511;279;121638;-55
2023/03/25 10:26:59;;;;;;;6.60;4.70;;;;;;;20.09;50.41;99247.10;104085;279;105715;-57
2023/03/25 10:29:39;;;;;;;5.60;4.40;;;;;;;20.34;49.22;99242.80;104492;279;113067;-55
2023/03/25 10:32:29;;;;;;;5.60;4.40;;;;;;;20.44;49.94;99241.98;104089;279;94844;-57
2023/03/25 10:35:06;;;;;;;6.70;4.80;;;;;;;20.76;49.83;99239.08;104016;279;98412;-59
2023/03/25 10:37:42;;;;;;;6.50;4.50;;;;;;;20.51;49.03;99229.48;104026;279;119829;-55
2023/03/25 10:40:24;;;;;;;7.40;4.50;;;;;;;20.06;50.15;99228.34;104079;279;105627;-55
2023/03/25 10:43:14;;;;;;;6.20;4.30;;;;;;;19.90;50.36;99225.88;104076;279;114738;-54
2023/03/25 10:45:50;;;;;;;7.10;4.10;;;;;;;19.82;50.24;99223.87;104479;278;94671;-54
2023/03/25 10:48:30;;;;;;;4.80;3.70;;;;;;;19.55;49.88;99225.84;104084;278;97022;-55
2023/03/25 10:51:10;;;;;;;6.90;4.40;;;;;;;19.36;50.03;99227.33;104469;279;120410;-54
2023/03/25 10:53:48;;;;;;;6.40;4.30;;;;;;;19.14;50.53;99227.74;104112;278;103723;-55
2023/03/25 10:56:25;;;;;;;5.80;3.90;;;;;;;19.16;50.82;99227.26;104473;279;115129;-54
2023/03/25 10:59:02;;;;;;;5.80;3.10;;;;;;;18.94;50.40;99227.41;104050;279;94612;-60
2023/03/25 11:01:40;;;;;;;6.60;4.00;;;;;;;18.62;50.66;99222.09;104101;279;97123;-61
2023/03/25 11:04:20;;;;;;;6.10;3.20;;;;;;;18.46;51.14;99220.13;104491;279;120742;-60
2023/03/25 11:06:59;;;;;;;5.00;3.30;;;;;;;18.50;51.07;99215.27;104390;279;106108;-60
2023/03/25 11:09:35;;;;;;;5.60;3.00;;;;;;;18.62;51.27;99211.42;104038;279;113577;-55
2023/03/25 11:12:10;;;;;;;5.50;2.50;;;;;;;18.74;50.75;99208.07;104415;279;93237;-55
2023/03/25 11:14:44;;;;;;;4.20;2.70;;;;;;;18.72;50.12;99208.55;104020;279;98088;-59
2023/03/25 11:17:24;;;;;;;4.00;2.50;;;;;;;18.45;49.59;99205.52;104015;280;120870;-59
2023/03/25 11:20:06;;;;;;;3.80;2.60;;;;;;;18.14;49.57;99204.52;104008;279;104915;-60
2023/03/25 11:22:48;;;;;;;5.50;3.10;;;;;;;18.00;50.51;99200.91;103993;279;113525;-54
2023/03/25 11:25:29;;;;;;;4.30;2.50;;;;;;;18.23;51.27;99197.56;104441;279;94886;-54
2023/03/25 11:28:10;;;;;;;4.20;2.60;;;;;;;18.55;51.33;99187.61;104437;279;98182;-58
2023/03/25 11:31:12;;;;;;;3.90;2.30;;;;;;;18.78;51.30;99182.29;104417;279;121190;-59
2023/03/25 11:34:03;;;;;;;4.10;2.20;;;;;;;18.77;50.91;99179.00;104016;279;104116;-60
2023/03/25 11:36:40;;;;;;;4.60;2.10;;;;;;;18.69;50.21;99175.67;104004;279;113906;-61
2023/03/25 11:39:29;;;;;;;3.30;1.70;;;;;;;18.63;49.98;99168.10;103982;280;95180;-61
2023/03/25 11:42:15;;;;;;;3.80;2.20;;;;;;;18.53;50.18;99164.97;104410;279;97818;-61
2023/03/25 11:44:58;;;;;;;3.70;1.80;;;;;;;18.49;49.58;99163.74;103973;279;120764;-59
2023/03/25 11:47:37;;;;;;;4.90;2.10;;;;;;;18.37;49.23;99162.60;103990;279;105525;-60
2023/03/25 11:50:21;;;;;;;3.80;2.00;;;;;;;18.20;49.75;99161.59;103815;279;115049;-60
2023/03/25 11:53:00;;;;;;;4.30;2.30;;;;;;;18.12;49.12;99158.27;103992;279;95410;-59
2023/03/25 11:55:45;;;;;;;2.90;1.40;;;;;;;18.20;49.81;99155.39;104028;279;97263;-59
2023/03/25 11:58:38;;;;;;;3.60;1.80;;;;;;;18.36;49.66;99153.08;104043;279;119929;-59
2023/03/25 12:01:28;;;;;;;3.90;1.80;;;;;;;18.44;50.15;99151.02;103811;281;105610;-61
2023/03/25 12:04:19;;;;;;;2.60;1.70;;;;;;;18.59;50.37;99153.70;104016;279;113881;-59
2023/03/25 12:14:03;;;;;;;4.50;1.80;;;;;;;18.55;49.55;99129.52;104156;277;119420;-54
2023/03/25 12:16:48;;;;;;;3.30;2.00;;;;;;;18.48;49.48;99132.23;104350;277;104518;-55
2023/03/25 12:19:34;;;;;;;3.60;1.80;;;;;;;18.50;49.90;99133.11;104347;276;114865;-60
2023/03/25 12:22:32;;;;;;;5.50;2.20;;;;;;;18.56;49.98;99135.98;104285;276;94605;-60
2023/03/25 12:25:25;;;;;;;3.20;2.00;;;;;;;18.61;50.21;99132.26;104324;276;95582;-60
2023/03/25 12:28:37;;;;;;;3.90;2.40;;;;;;;18.56;50.12;99122.36;104816;276;119953;-55